createdAt,value
2018-07-11T00:00:20.327Z,38.98
2018-07-11T00:00:56.266Z,38.79
2018-07-11T00:01:31.383Z,38.32
2018-07-11T00:02:06.628Z,38.51
2018-07-11T00:02:42.291Z,38.51
2018-07-11T00:03:17.288Z,37.65
2018-07-11T00:03:52.541Z,37.26
2018-07-11T00:04:28.256Z,36.88
2018-07-11T00:05:03.365Z,37.17
2018-07-11T00:05:38.385Z,37.07
2018-07-11T00:06:13.682Z,37.17
2018-07-11T00:06:49.208Z,36.98
2018-07-11T00:07:24.893Z,37.07
2018-07-11T00:08:00.134Z,37.17
2018-07-11T00:08:35.575Z,36.69
2018-07-11T00:09:11.208Z,36.60
2018-07-11T00:09:46.433Z,36.88
2018-07-11T00:10:21.683Z,36.31
2018-07-11T00:10:57.090Z,35.74
2018-07-11T00:11:32.956Z,35.45
2018-07-11T00:12:08.554Z,35.55
2018-07-11T00:12:44.224Z,35.64
2018-07-11T00:13:19.990Z,35.55
2018-07-11T00:13:55.354Z,35.26
2018-07-11T00:14:30.503Z,34.88
2018-07-11T00:15:06.231Z,34.97
2018-07-11T00:15:41.459Z,34.78
2018-07-11T00:16:16.957Z,34.97
2018-07-11T00:16:52.148Z,35.16
2018-07-11T00:17:27.595Z,34.78
2018-07-11T00:18:02.925Z,34.88
2018-07-11T00:18:38.477Z,35.45
2018-07-11T00:19:14.197Z,35.45
2018-07-11T00:19:49.528Z,34.11
2018-07-11T00:20:24.956Z,34.01
2018-07-11T00:21:00.462Z,34.40
2018-07-11T00:21:36.089Z,33.73
2018-07-11T00:22:11.380Z,34.69
2018-07-11T00:22:46.631Z,34.59
2018-07-11T00:23:22.027Z,34.59
2018-07-11T00:23:57.400Z,34.01
2018-07-11T00:24:32.652Z,34.20
2018-07-11T00:25:08.067Z,34.78
2018-07-11T00:25:43.441Z,34.01
2018-07-11T00:26:18.748Z,33.73
2018-07-11T00:26:54.180Z,34.88
2018-07-11T00:27:29.417Z,34.11
2018-07-11T00:28:04.893Z,33.92
2018-07-11T00:28:40.553Z,33.64
2018-07-11T00:29:16.280Z,33.54
2018-07-11T00:29:51.713Z,33.54
2018-07-11T00:30:26.908Z,33.35
2018-07-11T00:31:02.514Z,33.73
2018-07-11T00:31:37.839Z,33.35
2018-07-11T00:32:13.035Z,33.73
2018-07-11T00:32:48.362Z,34.88
2018-07-11T00:33:23.557Z,34.78
2018-07-11T00:33:59.138Z,34.30
2018-07-11T00:34:34.350Z,34.69
2018-07-11T00:35:09.918Z,33.73
2018-07-11T00:35:45.173Z,34.30
2018-07-11T00:36:20.583Z,34.88
2018-07-11T00:36:56.118Z,33.64
2018-07-11T00:37:31.593Z,33.73
2018-07-11T00:38:07.286Z,33.44
2018-07-11T00:38:42.724Z,33.25
2018-07-11T00:39:18.245Z,33.15
2018-07-11T00:39:53.694Z,33.15
2018-07-11T00:40:29.106Z,32.97
2018-07-11T00:41:04.136Z,32.39
2018-07-11T00:41:39.640Z,32.39
2018-07-11T00:42:14.837Z,32.50
2018-07-11T00:42:50.370Z,32.03
2018-07-11T00:43:25.767Z,32.58
2018-07-11T00:44:01.123Z,32.41
2018-07-11T00:44:37.540Z,31.84
2018-07-11T00:45:12.631Z,33.07
2018-07-11T00:45:47.955Z,32.60
2018-07-11T00:46:23.363Z,32.78
2018-07-11T00:46:58.491Z,32.79
2018-07-11T00:47:34.016Z,32.50
2018-07-11T00:48:09.221Z,32.50
2018-07-11T00:48:44.734Z,32.03
2018-07-11T00:49:19.770Z,32.70
2018-07-11T00:49:56.546Z,32.98
2018-07-11T00:50:31.989Z,32.12
2018-07-11T00:51:07.523Z,32.31
2018-07-11T00:51:42.878Z,31.93
2018-07-11T00:52:18.153Z,33.17
2018-07-11T00:52:53.482Z,32.31
2018-07-11T00:53:28.808Z,32.60
2018-07-11T00:54:04.014Z,31.93
2018-07-11T00:54:39.467Z,32.31
2018-07-11T00:55:14.770Z,31.84
2018-07-11T00:55:50.236Z,31.84
2018-07-11T00:56:25.921Z,31.93
2018-07-11T00:57:01.366Z,32.12
2018-07-11T00:57:36.418Z,31.74
2018-07-11T00:58:11.728Z,31.84
2018-07-11T00:58:46.898Z,31.84
2018-07-11T00:59:22.429Z,32.89
2018-07-11T00:59:58.055Z,31.93
2018-07-11T01:00:33.337Z,32.12
2018-07-11T01:01:08.672Z,32.03
2018-07-11T01:01:43.840Z,33.17
2018-07-11T01:02:19.059Z,33.65
2018-07-11T01:02:54.519Z,33.27
2018-07-11T01:03:29.811Z,32.50
2018-07-11T01:04:05.522Z,32.60
2018-07-11T01:04:40.908Z,32.12
2018-07-11T01:05:15.911Z,32.79
2018-07-11T01:05:51.446Z,33.36
2018-07-11T01:06:27.262Z,32.41
2018-07-11T01:07:02.796Z,32.31
2018-07-11T01:07:38.322Z,32.31
2018-07-11T01:08:13.729Z,32.50
2018-07-11T01:08:49.032Z,31.84
2018-07-11T01:09:24.677Z,32.21
2018-07-11T01:10:00.440Z,31.93
2018-07-11T01:10:36.362Z,32.31
2018-07-11T01:11:11.975Z,32.03
2018-07-11T01:11:47.606Z,32.03
2018-07-11T01:12:22.732Z,32.60
2018-07-11T01:12:57.957Z,31.84
2018-07-11T01:13:33.493Z,31.93
2018-07-11T01:14:08.859Z,32.50
2018-07-11T01:14:44.010Z,32.60
2018-07-11T01:15:19.320Z,32.41
2018-07-11T01:15:54.740Z,32.03
2018-07-11T01:16:30.437Z,31.93
2018-07-11T01:17:05.592Z,31.55
2018-07-11T01:17:40.831Z,32.31
2018-07-11T01:18:16.325Z,31.84
2018-07-11T01:18:51.589Z,31.84
2018-07-11T01:19:26.873Z,31.55
2018-07-11T01:20:02.139Z,31.93
2018-07-11T01:20:37.768Z,31.45
2018-07-11T01:21:13.164Z,31.74
2018-07-11T01:21:48.513Z,31.84
2018-07-11T01:22:23.720Z,31.45
2018-07-11T01:22:59.253Z,32.21
2018-07-11T01:23:34.382Z,31.84
2018-07-11T01:24:09.875Z,32.12
2018-07-11T01:24:45.337Z,32.12
2018-07-11T01:25:20.821Z,32.21
2018-07-11T01:25:56.369Z,32.41
2018-07-11T01:26:31.621Z,32.03
2018-07-11T01:27:07.338Z,32.50
2018-07-11T01:27:43.040Z,32.41
2018-07-11T01:28:18.576Z,32.70
2018-07-11T01:28:53.907Z,33.46
2018-07-11T01:29:29.215Z,32.79
2018-07-11T01:30:04.390Z,33.27
2018-07-11T01:30:39.901Z,33.36
2018-07-11T01:31:15.107Z,32.98
2018-07-11T01:31:50.573Z,33.36
2018-07-11T01:32:25.778Z,33.56
2018-07-11T01:33:01.413Z,33.36
2018-07-11T01:33:36.920Z,33.46
2018-07-11T01:34:12.063Z,33.56
2018-07-11T01:34:47.690Z,33.36
2018-07-11T01:35:23.127Z,33.56
2018-07-11T01:35:58.357Z,33.94
2018-07-11T01:36:33.992Z,33.17
2018-07-11T01:37:09.597Z,33.27
2018-07-11T01:37:44.848Z,33.07
2018-07-11T01:38:20.255Z,33.36
2018-07-11T01:38:55.581Z,33.46
2018-07-11T01:39:31.087Z,33.07
2018-07-11T01:40:06.466Z,33.17
2018-07-11T01:40:42.986Z,33.27
2018-07-11T01:41:18.517Z,33.17
2018-07-11T01:41:54.625Z,33.15
2018-07-11T01:42:30.282Z,32.41
2018-07-11T01:43:05.587Z,32.68
2018-07-11T01:43:41.003Z,33.27
2018-07-11T01:44:16.609Z,32.50
2018-07-11T01:44:51.892Z,32.68
2018-07-11T01:45:27.474Z,32.41
2018-07-11T01:46:02.814Z,32.58
2018-07-11T01:46:40.102Z,33.07
2018-07-11T01:47:15.486Z,32.49
2018-07-11T01:47:50.915Z,32.39
2018-07-11T01:48:26.250Z,32.49
2018-07-11T01:49:01.665Z,32.29
2018-07-11T01:49:37.285Z,32.10
2018-07-11T01:50:12.414Z,32.49
2018-07-11T01:50:47.866Z,32.20
2018-07-11T01:51:23.073Z,32.49
2018-07-11T01:51:58.394Z,31.92
2018-07-11T01:52:33.720Z,32.49
2018-07-11T01:53:09.263Z,31.92
2018-07-11T01:53:44.387Z,32.49
2018-07-11T01:54:19.817Z,32.01
2018-07-11T01:54:55.200Z,31.92
2018-07-11T01:55:30.618Z,32.29
2018-07-11T01:56:06.155Z,30.96
2018-07-11T01:56:41.295Z,31.24
2018-07-11T01:57:16.737Z,31.34
2018-07-11T01:57:51.993Z,31.92
2018-07-11T01:58:27.443Z,31.92
2018-07-11T01:59:03.077Z,31.53
2018-07-11T01:59:38.817Z,31.92
2018-07-11T02:00:14.180Z,31.05
2018-07-11T02:00:51.085Z,32.29
2018-07-11T02:01:26.723Z,31.92
2018-07-11T02:02:02.010Z,31.63
2018-07-11T02:02:37.686Z,30.86
2018-07-11T02:03:13.293Z,30.96
2018-07-11T02:03:48.443Z,31.04
2018-07-11T02:04:23.747Z,30.77
2018-07-11T02:04:59.073Z,30.38
2018-07-11T02:05:34.578Z,30.66
2018-07-11T02:06:09.908Z,30.27
2018-07-11T02:06:45.518Z,30.18
2018-07-11T02:07:20.799Z,30.08
2018-07-11T02:07:56.425Z,30.08
2018-07-11T02:08:32.056Z,29.70
2018-07-11T02:09:07.603Z,30.27
2018-07-11T02:09:42.808Z,30.08
2018-07-11T02:10:18.002Z,29.80
2018-07-11T02:10:53.170Z,29.51
2018-07-11T02:11:28.368Z,29.41
2018-07-11T02:12:03.902Z,29.32
2018-07-11T02:12:39.184Z,29.41
2018-07-11T02:13:14.544Z,29.51
2018-07-11T02:13:49.947Z,29.03
2018-07-11T02:14:25.291Z,28.94
2018-07-11T02:15:00.773Z,28.94
2018-07-11T02:15:36.414Z,28.94
2018-07-11T02:16:11.818Z,28.65
2018-07-11T02:16:48.356Z,28.27
2018-07-11T02:17:23.812Z,28.27
2018-07-11T02:17:58.922Z,28.27
2018-07-11T02:18:34.322Z,28.36
2018-07-11T02:19:09.740Z,28.75
2018-07-11T02:19:45.149Z,28.55
2018-07-11T02:20:20.587Z,27.98
2018-07-11T02:20:55.778Z,28.36
2018-07-11T02:21:31.142Z,27.79
2018-07-11T02:22:06.451Z,27.79
2018-07-11T02:22:42.125Z,28.36
2018-07-11T02:23:17.560Z,28.27
2018-07-11T02:23:52.765Z,27.79
2018-07-11T02:24:28.287Z,27.98
2018-07-11T02:25:03.620Z,27.89
2018-07-11T02:25:39.094Z,27.89
2018-07-11T02:26:14.431Z,27.79
2018-07-11T02:26:49.644Z,27.98
2018-07-11T02:27:24.894Z,27.98
2018-07-11T02:28:00.216Z,27.79
2018-07-11T02:28:35.667Z,27.60
2018-07-11T02:29:12.013Z,27.79
2018-07-11T02:29:47.446Z,28.08
2018-07-11T02:30:22.853Z,27.50
2018-07-11T02:30:58.191Z,27.41
2018-07-11T02:31:33.689Z,27.31
2018-07-11T02:32:09.011Z,27.89
2018-07-11T02:32:44.048Z,27.89
2018-07-11T02:33:19.500Z,27.50
2018-07-11T02:33:54.899Z,27.98
2018-07-11T02:34:30.146Z,27.70
2018-07-11T02:35:05.572Z,27.89
2018-07-11T02:35:40.930Z,27.50
2018-07-11T02:36:16.150Z,27.12
2018-07-11T02:36:51.682Z,27.12
2018-07-11T02:37:27.122Z,27.03
2018-07-11T02:38:02.391Z,26.84
2018-07-11T02:38:37.602Z,26.64
2018-07-11T02:39:12.942Z,26.74
2018-07-11T02:39:48.297Z,26.64
2018-07-11T02:40:23.741Z,27.30
2018-07-11T02:40:59.491Z,27.01
2018-07-11T02:41:35.426Z,27.01
2018-07-11T02:42:10.828Z,26.54
2018-07-11T02:42:46.400Z,26.73
2018-07-11T02:43:21.587Z,26.44
2018-07-11T02:43:57.037Z,26.73
2018-07-11T02:44:32.576Z,26.73
2018-07-11T02:45:07.881Z,26.15
2018-07-11T02:45:46.078Z,25.87
2018-07-11T02:46:21.503Z,25.58
2018-07-11T02:46:56.804Z,26.06
2018-07-11T02:47:32.292Z,26.06
2018-07-11T02:48:07.486Z,25.39
2018-07-11T02:48:43.052Z,25.87
2018-07-11T02:49:18.582Z,25.87
2018-07-11T02:49:53.934Z,26.15
2018-07-11T02:50:29.603Z,26.15
2018-07-11T02:51:04.924Z,26.34
2018-07-11T02:51:40.041Z,25.68
2018-07-11T02:52:15.196Z,25.39
2018-07-11T02:52:50.610Z,25.39
2018-07-11T02:53:25.960Z,25.87
2018-07-11T02:54:01.191Z,25.96
2018-07-11T02:54:36.306Z,25.68
2018-07-11T02:55:11.724Z,25.39
2018-07-11T02:55:47.064Z,25.39
2018-07-11T02:56:22.561Z,25.49
2018-07-11T02:56:58.209Z,25.77
2018-07-11T02:57:33.535Z,25.29
2018-07-11T02:58:09.364Z,25.96
2018-07-11T02:58:44.556Z,25.68
2018-07-11T02:59:20.520Z,25.68
2018-07-11T02:59:55.751Z,25.68
2018-07-11T03:00:31.147Z,25.77
2018-07-11T03:01:06.447Z,26.06
2018-07-11T03:01:41.991Z,26.34
2018-07-11T03:02:17.799Z,26.06
2018-07-11T03:02:53.271Z,25.49
2018-07-11T03:03:28.988Z,25.49
2018-07-11T03:04:04.026Z,26.06
2018-07-11T03:04:39.367Z,25.77
2018-07-11T03:05:14.684Z,25.77
2018-07-11T03:05:50.111Z,25.49
2018-07-11T03:06:26.373Z,25.39
2018-07-11T03:07:01.572Z,25.49
2018-07-11T03:07:36.725Z,25.39
2018-07-11T03:08:12.541Z,25.10
2018-07-11T03:08:48.071Z,25.20
2018-07-11T03:09:23.297Z,25.39
2018-07-11T03:09:58.830Z,25.20
2018-07-11T03:10:34.251Z,25.20
2018-07-11T03:11:09.466Z,25.01
2018-07-11T03:11:44.983Z,25.58
2018-07-11T03:12:20.432Z,25.29
2018-07-11T03:12:55.744Z,25.58
2018-07-11T03:13:30.980Z,25.68
2018-07-11T03:14:06.189Z,25.58
2018-07-11T03:14:41.328Z,25.20
2018-07-11T03:15:16.653Z,25.49
2018-07-11T03:15:51.966Z,25.87
2018-07-11T03:16:27.469Z,26.25
2018-07-11T03:17:02.990Z,25.68
2018-07-11T03:17:38.559Z,25.96
2018-07-11T03:18:13.891Z,25.20
2018-07-11T03:18:49.204Z,26.34
2018-07-11T03:19:24.629Z,25.87
2018-07-11T03:20:00.046Z,25.96
2018-07-11T03:20:35.769Z,25.49
2018-07-11T03:21:11.070Z,25.68
2018-07-11T03:21:46.397Z,25.49
2018-07-11T03:22:22.048Z,25.49
2018-07-11T03:22:57.502Z,25.39
2018-07-11T03:23:32.931Z,25.77
2018-07-11T03:24:08.460Z,25.58
2018-07-11T03:24:43.971Z,25.29
2018-07-11T03:25:19.306Z,25.68
2018-07-11T03:25:55.097Z,25.87
2018-07-11T03:26:30.623Z,25.68
2018-07-11T03:27:06.010Z,25.87
2018-07-11T03:27:41.292Z,25.87
2018-07-11T03:28:16.610Z,25.49
2018-07-11T03:28:52.275Z,25.77
2018-07-11T03:29:27.587Z,25.77
2018-07-11T03:30:03.098Z,26.34
2018-07-11T03:30:38.700Z,25.96
2018-07-11T03:31:14.170Z,25.49
2018-07-11T03:31:49.555Z,25.39
2018-07-11T03:32:25.153Z,25.77
2018-07-11T03:33:00.367Z,25.49
2018-07-11T03:33:35.916Z,25.49
2018-07-11T03:34:11.323Z,25.29
2018-07-11T03:34:46.670Z,26.06
2018-07-11T03:35:22.092Z,25.77
2018-07-11T03:35:57.760Z,25.77
2018-07-11T03:36:32.896Z,25.87
2018-07-11T03:37:08.118Z,25.68
2018-07-11T03:37:43.543Z,25.77
2018-07-11T03:38:18.593Z,26.73
2018-07-11T03:38:54.085Z,26.63
2018-07-11T03:39:29.323Z,26.54
2018-07-11T03:40:04.736Z,26.73
2018-07-11T03:40:44.641Z,26.54
2018-07-11T03:41:20.245Z,25.87
2018-07-11T03:41:55.553Z,25.39
2018-07-11T03:42:31.084Z,26.06
2018-07-11T03:43:06.717Z,26.25
2018-07-11T03:43:42.044Z,26.34
2018-07-11T03:44:17.460Z,26.15
2018-07-11T03:44:52.559Z,25.77
2018-07-11T03:45:27.997Z,26.73
2018-07-11T03:46:03.390Z,26.63
2018-07-11T03:46:39.126Z,26.34
2018-07-11T03:47:14.364Z,26.44
2018-07-11T03:47:50.788Z,26.54
2018-07-11T03:48:26.392Z,26.82
2018-07-11T03:49:01.910Z,26.73
2018-07-11T03:49:37.203Z,26.73
2018-07-11T03:50:12.337Z,26.54
2018-07-11T03:50:47.525Z,26.43
2018-07-11T03:51:22.883Z,26.06
2018-07-11T03:51:58.483Z,26.06
2018-07-11T03:52:33.851Z,26.73
2018-07-11T03:53:09.052Z,26.15
2018-07-11T03:53:44.529Z,26.44
2018-07-11T03:54:19.784Z,26.63
2018-07-11T03:54:55.317Z,25.76
2018-07-11T03:55:30.435Z,25.85
2018-07-11T03:56:05.883Z,25.58
2018-07-11T03:56:41.280Z,26.52
2018-07-11T03:57:16.438Z,26.54
2018-07-11T03:57:51.642Z,26.44
2018-07-11T03:58:26.954Z,26.82
2018-07-11T03:59:02.345Z,25.67
2018-07-11T03:59:38.198Z,26.44
2018-07-11T04:00:13.799Z,25.87
2018-07-11T04:00:49.223Z,25.68
2018-07-11T04:01:24.944Z,26.06
2018-07-11T04:02:00.233Z,26.63
2018-07-11T04:02:35.802Z,25.58
2018-07-11T04:03:11.533Z,26.34
2018-07-11T04:03:47.049Z,26.04
2018-07-11T04:04:22.275Z,26.06
2018-07-11T04:04:57.713Z,26.54
2018-07-11T04:05:33.325Z,26.72
2018-07-11T04:06:08.625Z,27.11
2018-07-11T04:06:44.058Z,26.54
2018-07-11T04:07:19.517Z,26.52
2018-07-11T04:07:55.245Z,26.43
2018-07-11T04:08:30.668Z,26.24
2018-07-11T04:09:06.514Z,26.25
2018-07-11T04:09:41.836Z,27.28
2018-07-11T04:10:17.374Z,27.86
2018-07-11T04:10:52.875Z,27.57
2018-07-11T04:11:28.321Z,27.30
2018-07-11T04:12:03.633Z,26.92
2018-07-11T04:12:38.799Z,27.20
2018-07-11T04:13:14.166Z,26.54
2018-07-11T04:13:49.723Z,26.44
2018-07-11T04:14:24.922Z,27.11
2018-07-11T04:15:00.433Z,27.20
2018-07-11T04:15:35.647Z,27.87
2018-07-11T04:16:11.060Z,27.78
2018-07-11T04:16:46.466Z,27.49
2018-07-11T04:17:22.024Z,27.87
2018-07-11T04:17:57.555Z,27.87
2018-07-11T04:18:33.123Z,27.68
2018-07-11T04:19:08.535Z,27.97
2018-07-11T04:19:43.878Z,27.59
2018-07-11T04:20:19.377Z,27.30
2018-07-11T04:20:55.018Z,28.06
2018-07-11T04:21:30.227Z,28.06
2018-07-11T04:22:05.525Z,27.97
2018-07-11T04:22:40.844Z,27.87
2018-07-11T04:23:16.584Z,27.78
2018-07-11T04:23:52.209Z,28.06
2018-07-11T04:24:27.437Z,27.87
2018-07-11T04:25:02.740Z,28.16
2018-07-11T04:25:38.501Z,27.59
2018-07-11T04:26:13.800Z,27.59
2018-07-11T04:26:49.641Z,27.87
2018-07-11T04:27:24.972Z,28.06
2018-07-11T04:28:00.228Z,28.06
2018-07-11T04:28:35.760Z,28.44
2018-07-11T04:29:11.075Z,28.54
2018-07-11T04:29:46.574Z,28.35
2018-07-11T04:30:21.938Z,28.44
2018-07-11T04:30:57.145Z,28.73
2018-07-11T04:31:32.762Z,29.11
2018-07-11T04:32:07.971Z,29.02
2018-07-11T04:32:43.577Z,29.11
2018-07-11T04:33:18.886Z,29.02
2018-07-11T04:33:54.146Z,28.64
2018-07-11T04:34:29.659Z,29.02
2018-07-11T04:35:04.988Z,29.21
2018-07-11T04:35:40.614Z,29.21
2018-07-11T04:36:15.970Z,28.44
2018-07-11T04:36:51.576Z,29.21
2018-07-11T04:37:27.346Z,28.64
2018-07-11T04:38:02.936Z,28.35
2018-07-11T04:38:38.379Z,29.21
2018-07-11T04:39:13.585Z,28.83
2018-07-11T04:39:48.948Z,29.11
2018-07-11T04:40:24.426Z,28.64
2018-07-11T04:41:00.072Z,28.64
2018-07-11T04:41:35.380Z,28.73
2018-07-11T04:42:10.695Z,28.64
2018-07-11T04:42:46.220Z,28.35
2018-07-11T04:43:21.467Z,28.64
2018-07-11T04:43:56.885Z,29.11
2018-07-11T04:44:32.305Z,28.83
2018-07-11T04:45:07.809Z,29.02
2018-07-11T04:45:43.370Z,29.59
2018-07-11T04:46:18.653Z,29.21
2018-07-11T04:46:54.111Z,29.97
2018-07-11T04:47:29.456Z,30.26
2018-07-11T04:48:04.812Z,29.78
2018-07-11T04:48:40.227Z,30.26
2018-07-11T04:49:15.265Z,30.16
2018-07-11T04:49:50.670Z,29.69
2018-07-11T04:50:25.809Z,30.26
2018-07-11T04:51:01.300Z,30.16
2018-07-11T04:51:36.711Z,30.55
2018-07-11T04:52:12.112Z,30.74
2018-07-11T04:52:47.634Z,30.35
2018-07-11T04:53:22.975Z,30.55
2018-07-11T04:53:58.295Z,30.64
2018-07-11T04:54:33.499Z,30.74
2018-07-11T04:55:08.952Z,30.74
2018-07-11T04:55:44.755Z,31.12
2018-07-11T04:56:19.995Z,31.50
2018-07-11T04:56:55.468Z,31.50
2018-07-11T04:57:31.148Z,31.40
2018-07-11T04:58:06.050Z,31.02
2018-07-11T04:58:41.563Z,31.98
2018-07-11T04:59:16.715Z,31.88
2018-07-11T04:59:52.125Z,31.60
2018-07-11T05:00:27.320Z,30.83
2018-07-11T05:01:02.943Z,30.93
2018-07-11T05:01:38.464Z,31.88
2018-07-11T05:02:13.922Z,32.26
2018-07-11T05:02:49.323Z,31.79
2018-07-11T05:03:24.751Z,32.17
2018-07-11T05:04:00.167Z,32.26
2018-07-11T05:04:35.415Z,32.07
2018-07-11T05:05:10.833Z,32.07
2018-07-11T05:05:46.302Z,32.36
2018-07-11T05:06:21.713Z,31.79
2018-07-11T05:06:57.463Z,32.07
2018-07-11T05:07:32.807Z,31.88
2018-07-11T05:08:08.741Z,31.40
2018-07-11T05:08:44.488Z,31.50
2018-07-11T05:09:20.114Z,31.88
2018-07-11T05:09:55.140Z,32.36
2018-07-11T05:10:30.680Z,32.07
2018-07-11T05:11:06.188Z,32.07
2018-07-11T05:11:42.210Z,31.79
2018-07-11T05:12:17.343Z,32.36
2018-07-11T05:12:52.855Z,32.55
2018-07-11T05:13:28.170Z,32.74
2018-07-11T05:14:03.727Z,32.74
2018-07-11T05:14:39.009Z,32.55
2018-07-11T05:15:14.346Z,32.65
2018-07-11T05:15:50.251Z,31.98
2018-07-11T05:16:25.608Z,32.26
2018-07-11T05:17:00.918Z,32.45
2018-07-11T05:17:36.371Z,32.17
2018-07-11T05:18:11.952Z,33.41
2018-07-11T05:18:47.483Z,32.74
2018-07-11T05:19:23.183Z,32.65
2018-07-11T05:19:58.561Z,32.86
2018-07-11T05:20:33.954Z,32.09
2018-07-11T05:21:09.089Z,32.28
2018-07-11T05:21:44.462Z,32.18
2018-07-11T05:22:19.958Z,32.09
2018-07-11T05:22:55.347Z,32.28
2018-07-11T05:23:31.041Z,33.14
2018-07-11T05:24:06.466Z,34.09
2018-07-11T05:24:42.294Z,34.00
2018-07-11T05:25:17.600Z,34.09
2018-07-11T05:25:53.041Z,35.24
2018-07-11T05:26:28.468Z,35.82
2018-07-11T05:27:03.809Z,36.48
2018-07-11T05:27:39.491Z,35.91
2018-07-11T05:28:14.948Z,35.72
2018-07-11T05:28:50.142Z,36.19
2018-07-11T05:29:25.389Z,36.88
2018-07-11T05:30:00.706Z,38.32
2018-07-11T05:30:36.076Z,38.03
2018-07-11T05:31:11.675Z,38.41
2018-07-11T05:31:47.101Z,38.89
2018-07-11T05:32:22.642Z,39.18
2018-07-11T05:32:58.092Z,39.27
2018-07-11T05:33:33.388Z,39.75
2018-07-11T05:34:09.040Z,40.80
2018-07-11T05:34:44.649Z,40.13
2018-07-11T05:35:20.270Z,40.61
2018-07-11T05:35:55.845Z,41.47
2018-07-11T05:36:31.007Z,41.09
2018-07-11T05:37:06.233Z,41.38
2018-07-11T05:37:42.320Z,41.47
2018-07-11T05:38:17.914Z,42.71
2018-07-11T05:38:53.270Z,43.66
2018-07-11T05:39:28.367Z,43.66
2018-07-11T05:40:03.709Z,44.05
2018-07-11T05:40:39.303Z,44.26
2018-07-11T05:41:14.880Z,43.59
2018-07-11T05:41:50.484Z,42.93
2018-07-11T05:42:25.869Z,43.79
2018-07-11T05:43:01.192Z,43.50
2018-07-11T05:43:36.405Z,44.74
2018-07-11T05:44:11.757Z,46.08
2018-07-11T05:44:47.173Z,45.70
2018-07-11T05:45:22.665Z,45.03
2018-07-11T05:45:58.385Z,47.32
2018-07-11T05:46:33.500Z,47.03
2018-07-11T05:47:08.941Z,47.03
2018-07-11T05:47:44.273Z,47.61
2018-07-11T05:48:19.824Z,49.07
2018-07-11T05:48:55.353Z,48.11
2018-07-11T05:49:30.875Z,49.35
2018-07-11T05:50:06.070Z,50.21
2018-07-11T05:50:42.199Z,50.31
2018-07-11T05:51:17.441Z,49.93
2018-07-11T05:51:52.768Z,49.45
2018-07-11T05:52:27.918Z,50.02
2018-07-11T05:53:03.244Z,50.12
2018-07-11T05:53:38.476Z,50.98
2018-07-11T05:54:14.721Z,52.13
2018-07-11T05:54:50.137Z,52.03
2018-07-11T05:55:25.500Z,52.80
2018-07-11T05:56:00.784Z,52.89
2018-07-11T05:56:36.051Z,52.80
2018-07-11T05:57:11.468Z,52.89
2018-07-11T05:57:46.690Z,52.51
2018-07-11T05:58:22.253Z,53.94
2018-07-11T05:58:57.496Z,52.61
2018-07-11T05:59:33.018Z,52.99
2018-07-11T06:00:08.571Z,53.49
2018-07-11T06:00:45.483Z,54.45
2018-07-11T06:01:20.831Z,53.30
2018-07-11T06:01:56.174Z,52.92
2018-07-11T06:02:31.527Z,52.73
2018-07-11T06:03:07.013Z,52.92
2018-07-11T06:03:42.457Z,52.25
2018-07-11T06:04:17.483Z,52.03
2018-07-11T06:04:53.161Z,52.73
2018-07-11T06:05:28.501Z,52.06
2018-07-11T06:06:03.851Z,52.25
2018-07-11T06:06:39.283Z,53.11
2018-07-11T06:07:14.636Z,53.11
2018-07-11T06:07:49.982Z,53.02
2018-07-11T06:08:25.548Z,52.83
2018-07-11T06:09:02.665Z,54.26
2018-07-11T06:09:38.224Z,53.40
2018-07-11T06:10:13.561Z,53.88
2018-07-11T06:10:49.024Z,53.97
2018-07-11T06:11:24.504Z,54.55
2018-07-11T06:11:59.894Z,54.26
2018-07-11T06:12:35.382Z,54.55
2018-07-11T06:13:10.976Z,54.64
2018-07-11T06:13:46.284Z,55.51
2018-07-11T06:14:21.818Z,55.41
2018-07-11T06:14:57.311Z,55.22
2018-07-11T06:15:32.694Z,55.12
2018-07-11T06:16:08.335Z,55.79
2018-07-11T06:16:43.599Z,55.02
2018-07-11T06:17:19.308Z,55.31
2018-07-11T06:17:54.746Z,55.79
2018-07-11T06:18:30.214Z,55.60
2018-07-11T06:19:05.681Z,56.08
2018-07-11T06:19:40.857Z,55.88
2018-07-11T06:20:16.380Z,55.79
2018-07-11T06:20:52.058Z,57.04
2018-07-11T06:21:27.392Z,56.75
2018-07-11T06:22:02.667Z,57.04
2018-07-11T06:22:38.254Z,57.13
2018-07-11T06:23:13.643Z,56.37
2018-07-11T06:23:49.011Z,56.84
2018-07-11T06:24:24.214Z,56.56
2018-07-11T06:24:59.671Z,56.84
2018-07-11T06:25:35.099Z,56.30
2018-07-11T06:26:14.620Z,55.53
2018-07-11T06:26:54.636Z,57.70
2018-07-11T06:27:30.492Z,56.08
2018-07-11T06:28:06.341Z,57.64
2018-07-11T06:28:41.686Z,58.22
2018-07-11T06:29:17.117Z,58.50
2018-07-11T06:29:52.578Z,56.87
2018-07-11T06:30:27.984Z,56.77
2018-07-11T06:31:03.311Z,58.02
2018-07-11T06:31:38.824Z,57.54
2018-07-11T06:32:14.124Z,58.31
2018-07-11T06:32:49.338Z,57.54
2018-07-11T06:33:24.597Z,57.64
2018-07-11T06:33:59.898Z,56.87
2018-07-11T06:34:35.147Z,57.35
2018-07-11T06:35:10.551Z,57.83
2018-07-11T06:35:45.961Z,57.45
2018-07-11T06:36:21.469Z,58.50
2018-07-11T06:36:56.812Z,58.98
2018-07-11T06:37:32.327Z,59.94
2018-07-11T06:38:07.864Z,58.59
2018-07-11T06:38:43.187Z,57.45
2018-07-11T06:39:18.750Z,57.73
2018-07-11T06:39:54.147Z,57.64
2018-07-11T06:40:29.783Z,58.79
2018-07-11T06:41:05.043Z,58.02
2018-07-11T06:41:40.490Z,58.79
2018-07-11T06:42:15.909Z,58.15
2018-07-11T06:42:51.424Z,57.64
2018-07-11T06:43:26.976Z,58.98
2018-07-11T06:44:02.507Z,58.05
2018-07-11T06:44:37.819Z,57.95
2018-07-11T06:45:13.455Z,59.39
2018-07-11T06:45:49.671Z,59.39
2018-07-11T06:46:25.120Z,60.44
2018-07-11T06:47:00.529Z,60.73
2018-07-11T06:47:35.884Z,59.97
2018-07-11T06:48:11.205Z,60.64
2018-07-11T06:48:46.662Z,59.39
2018-07-11T06:49:24.603Z,61.15
2018-07-11T06:49:59.848Z,59.71
2018-07-11T06:50:35.206Z,59.80
2018-07-11T06:51:13.664Z,60.00
2018-07-11T06:51:51.603Z,60.57
2018-07-11T06:52:26.960Z,62.33
2018-07-11T06:53:02.571Z,63.29
2018-07-11T06:56:18.195Z,64.56
2018-07-11T06:56:53.399Z,63.70
2018-07-11T06:57:28.473Z,65.72
2018-07-11T06:58:03.601Z,65.43
2018-07-11T06:58:39.149Z,65.75
2018-07-11T06:59:14.549Z,65.94
2018-07-11T06:59:50.272Z,67.99
2018-07-11T07:00:25.599Z,66.46
2018-07-11T07:01:01.046Z,66.00
2018-07-11T07:01:36.462Z,68.89
2018-07-11T07:02:11.684Z,69.89
2018-07-11T07:02:46.769Z,70.75
2018-07-11T07:03:22.127Z,69.50
2018-07-11T07:03:57.287Z,70.27
2018-07-11T07:04:32.935Z,70.30
2018-07-11T07:05:08.429Z,70.11
2018-07-11T07:05:44.077Z,72.23
2018-07-11T07:06:19.730Z,72.71
2018-07-11T07:06:54.969Z,72.32
2018-07-11T07:07:30.209Z,71.04
2018-07-11T07:08:05.668Z,72.58
2018-07-11T07:08:40.983Z,72.96
2018-07-11T07:09:16.532Z,72.48
2018-07-11T07:09:51.655Z,71.42
2018-07-11T07:10:27.350Z,72.38
2018-07-11T07:11:02.932Z,72.38
2018-07-11T07:11:38.188Z,70.94
2018-07-11T07:12:13.385Z,72.77
2018-07-11T07:12:48.730Z,72.29
2018-07-11T07:13:23.875Z,72.67
2018-07-11T07:13:59.114Z,72.19
2018-07-11T07:14:34.702Z,71.58
2018-07-11T07:15:09.948Z,71.33
2018-07-11T07:15:45.154Z,70.37
2018-07-11T07:16:20.487Z,71.71
2018-07-11T07:16:55.917Z,69.79
2018-07-11T07:17:31.277Z,72.09
2018-07-11T07:18:06.767Z,72.58
2018-07-11T07:18:42.533Z,72.00
2018-07-11T07:19:17.921Z,71.33
2018-07-11T07:19:53.559Z,71.14
2018-07-11T07:20:28.845Z,71.55
2018-07-11T07:21:04.285Z,70.30
2018-07-11T07:21:39.829Z,72.61
2018-07-11T07:22:15.176Z,72.13
2018-07-11T07:22:50.477Z,72.45
2018-07-11T07:23:25.729Z,70.62
2018-07-11T07:24:01.233Z,72.94
2018-07-11T07:24:36.730Z,73.03
2018-07-11T07:25:12.247Z,72.26
2018-07-11T07:25:47.699Z,71.94
2018-07-11T07:26:22.679Z,72.65
2018-07-11T07:26:58.221Z,72.61
2018-07-11T07:27:33.732Z,72.13
2018-07-11T07:28:09.266Z,72.61
2018-07-11T07:31:25.097Z,72.23
2018-07-11T07:32:01.766Z,72.42
2018-07-11T07:32:37.045Z,73.09
2018-07-11T07:33:12.585Z,72.90
2018-07-11T07:33:47.921Z,72.71
2018-07-11T07:34:23.263Z,72.23
2018-07-11T07:34:58.687Z,72.32
2018-07-11T07:35:34.108Z,71.42
2018-07-11T07:36:09.566Z,72.67
2018-07-11T07:36:45.276Z,72.00
2018-07-11T07:37:20.944Z,72.29
2018-07-11T07:37:56.281Z,72.67
2018-07-11T07:38:31.803Z,72.96
2018-07-11T07:39:08.231Z,72.67
2018-07-11T07:39:43.631Z,71.23
2018-07-11T07:40:19.079Z,72.29
2018-07-11T07:40:56.264Z,71.71
2018-07-11T07:41:31.703Z,71.71
2018-07-11T07:42:07.321Z,71.52